sensor_id;sensor_type;location;lat;lon;timestamp;temperature;humidity
52509;DHT22;38420;53.150;6.370;2022-12-18T00:00:59;-3.50;99.90
52509;DHT22;38420;53.150;6.370;2022-12-18T00:03:25;-3.60;99.90
52509;DHT22;38420;53.150;6.370;2022-12-18T00:05:52;-3.50;99.90
52509;DHT22;38420;53.150;6.370;2022-12-18T00:08:18;-3.50;99.90
52509;DHT22;38420;53.150;6.370;2022-12-18T00:10:44;-3.40;99.90
52509;DHT22;38420;53.150;6.370;2022-12-18T00:13:12;-3.40;99.90
52509;DHT22;38420;53.150;6.370;2022-12-18T00:15:39;-3.40;99.90
52509;DHT22;38420;53.150;6.370;2022-12-18T00:18:05;-3.30;99.90
52509;DHT22;38420;53.150;6.370;2022-12-18T00:20:31;-3.40;99.90
52509;DHT22;38420;53.150;6.370;2022-12-18T00:23:00;-3.60;99.90
52509;DHT22;38420;53.150;6.370;2022-12-18T00:25:26;-3.50;99.90
52509;DHT22;38420;53.150;6.370;2022-12-18T00:27:52;-3.50;99.90
52509;DHT22;38420;53.150;6.370;2022-12-18T00:30:18;-3.40;99.90
52509;DHT22;38420;53.150;6.370;2022-12-18T00:32:43;-3.70;99.90
52509;DHT22;38420;53.150;6.370;2022-12-18T00:35:09;-3.50;99.90
52509;DHT22;38420;53.150;6.370;2022-12-18T00:37:35;-3.80;99.90
52509;DHT22;38420;53.150;6.370;2022-12-18T00:40:00;-3.50;99.90
52509;DHT22;38420;53.150;6.370;2022-12-18T00:42:26;-3.50;99.90
52509;DHT22;38420;53.150;6.370;2022-12-18T00:45:10;-3.50;99.90
52509;DHT22;38420;53.150;6.370;2022-12-18T00:47:36;-3.80;99.90
52509;DHT22;38420;53.150;6.370;2022-12-18T00:50:02;-2.80;99.90
52509;DHT22;38420;53.150;6.370;2022-12-18T00:52:27;-3.90;99.90
52509;DHT22;38420;53.150;6.370;2022-12-18T00:54:53;-3.80;99.90
52509;DHT22;38420;53.150;6.370;2022-12-18T00:57:18;-3.80;99.90
52509;DHT22;38420;53.150;6.370;2022-12-18T00:59:44;-3.80;99.90
52509;DHT22;38420;53.150;6.370;2022-12-18T01:02:13;-3.80;99.90
52509;DHT22;38420;53.150;6.370;2022-12-18T01:04:38;-3.70;99.90
52509;DHT22;38420;53.150;6.370;2022-12-18T01:07:04;-3.80;99.90
52509;DHT22;38420;53.150;6.370;2022-12-18T01:09:29;-3.90;99.90
52509;DHT22;38420;53.150;6.370;2022-12-18T01:11:55;-3.90;99.90
52509;DHT22;38420;53.150;6.370;2022-12-18T01:14:21;-4.00;99.90
52509;DHT22;38420;53.150;6.370;2022-12-18T01:16:46;-3.70;99.90
52509;DHT22;38420;53.150;6.370;2022-12-18T01:19:12;-3.70;99.90
52509;DHT22;38420;53.150;6.370;2022-12-18T01:21:37;-3.90;99.90
52509;DHT22;38420;53.150;6.370;2022-12-18T01:24:04;-3.80;99.90
52509;DHT22;38420;53.150;6.370;2022-12-18T01:26:29;-3.80;99.90
52509;DHT22;38420;53.150;6.370;2022-12-18T01:28:56;-3.90;99.90
52509;DHT22;38420;53.150;6.370;2022-12-18T01:31:24;-3.90;99.90
52509;DHT22;38420;53.150;6.370;2022-12-18T01:33:51;-4.10;99.90
52509;DHT22;38420;53.150;6.370;2022-12-18T01:36:21;-4.10;99.90
52509;DHT22;38420;53.150;6.370;2022-12-18T01:38:47;-4.00;99.90
52509;DHT22;38420;53.150;6.370;2022-12-18T01:41:15;-4.20;99.90
52509;DHT22;38420;53.150;6.370;2022-12-18T01:43:49;-4.20;99.90
52509;DHT22;38420;53.150;6.370;2022-12-18T01:46:17;-4.30;99.90
52509;DHT22;38420;53.150;6.370;2022-12-18T01:48:45;-4.10;99.90
52509;DHT22;38420;53.150;6.370;2022-12-18T01:51:12;-4.30;99.90
52509;DHT22;38420;53.150;6.370;2022-12-18T01:53:40;-4.40;99.90
52509;DHT22;38420;53.150;6.370;2022-12-18T01:56:07;-4.30;99.90
52509;DHT22;38420;53.150;6.370;2022-12-18T02:01:10;-4.20;99.90
52509;DHT22;38420;53.150;6.370;2022-12-18T02:03:36;-4.30;99.90
52509;DHT22;38420;53.150;6.370;2022-12-18T02:09:12;-4.30;99.90
52509;DHT22;38420;53.150;6.370;2022-12-18T02:12:06;-4.50;99.90
52509;DHT22;38420;53.150;6.370;2022-12-18T02:17:21;-4.40;99.90
52509;DHT22;38420;53.150;6.370;2022-12-18T02:25:57;-4.50;99.90
52509;DHT22;38420;53.150;6.370;2022-12-18T02:28:30;-4.80;99.90
52509;DHT22;38420;53.150;6.370;2022-12-18T02:31:00;-4.70;99.90
52509;DHT22;38420;53.150;6.370;2022-12-18T02:33:27;-4.50;99.90
52509;DHT22;38420;53.150;6.370;2022-12-18T02:35:56;-4.60;99.90
52509;DHT22;38420;53.150;6.370;2022-12-18T02:38:23;-4.60;99.90
52509;DHT22;38420;53.150;6.370;2022-12-18T02:40:51;-4.80;99.90
52509;DHT22;38420;53.150;6.370;2022-12-18T02:43:19;-4.70;99.90
52509;DHT22;38420;53.150;6.370;2022-12-18T02:45:53;-4.80;99.90
52509;DHT22;38420;53.150;6.370;2022-12-18T02:48:28;-4.80;99.90
52509;DHT22;38420;53.150;6.370;2022-12-18T02:51:20;-4.70;99.90
52509;DHT22;38420;53.150;6.370;2022-12-18T02:53:58;-4.90;99.90
52509;DHT22;38420;53.150;6.370;2022-12-18T02:56:38;-4.70;99.90
52509;DHT22;38420;53.150;6.370;2022-12-18T02:59:17;-4.80;99.90
52509;DHT22;38420;53.150;6.370;2022-12-18T03:04:33;-4.90;99.90
52509;DHT22;38420;53.150;6.370;2022-12-18T03:07:06;-4.60;99.90
52509;DHT22;38420;53.150;6.370;2022-12-18T03:09:41;-4.60;99.90
52509;DHT22;38420;53.150;6.370;2022-12-18T03:12:17;-4.90;99.90
52509;DHT22;38420;53.150;6.370;2022-12-18T03:17:27;-4.60;99.90
52509;DHT22;38420;53.150;6.370;2022-12-18T03:19:55;-4.70;99.90
52509;DHT22;38420;53.150;6.370;2022-12-18T03:22:23;-4.60;99.90
52509;DHT22;38420;53.150;6.370;2022-12-18T03:24:51;-4.70;99.90
52509;DHT22;38420;53.150;6.370;2022-12-18T03:27:18;-4.70;99.90
52509;DHT22;38420;53.150;6.370;2022-12-18T03:29:55;-4.80;99.90
52509;DHT22;38420;53.150;6.370;2022-12-18T03:32:36;-4.90;99.90
52509;DHT22;38420;53.150;6.370;2022-12-18T03:35:05;-5.00;99.90
52509;DHT22;38420;53.150;6.370;2022-12-18T03:37:32;-4.70;99.90
52509;DHT22;38420;53.150;6.370;2022-12-18T03:39:58;-5.00;99.90
52509;DHT22;38420;53.150;6.370;2022-12-18T03:42:48;-5.00;99.90
52509;DHT22;38420;53.150;6.370;2022-12-18T03:45:42;-5.10;99.90
52509;DHT22;38420;53.150;6.370;2022-12-18T03:48:21;-5.00;99.90
52509;DHT22;38420;53.150;6.370;2022-12-18T03:51:11;-5.10;99.90
52509;DHT22;38420;53.150;6.370;2022-12-18T03:53:58;-5.10;99.90
52509;DHT22;38420;53.150;6.370;2022-12-18T03:56:28;-5.10;99.90
52509;DHT22;38420;53.150;6.370;2022-12-18T03:58:55;-5.10;99.90
52509;DHT22;38420;53.150;6.370;2022-12-18T04:01:28;-5.20;99.90
52509;DHT22;38420;53.150;6.370;2022-12-18T04:03:55;-5.00;99.90
52509;DHT22;38420;53.150;6.370;2022-12-18T04:06:22;-5.20;99.90
52509;DHT22;38420;53.150;6.370;2022-12-18T04:08:48;-5.00;99.90
52509;DHT22;38420;53.150;6.370;2022-12-18T04:11:15;-4.80;99.90
52509;DHT22;38420;53.150;6.370;2022-12-18T04:13:42;-5.00;99.90
52509;DHT22;38420;53.150;6.370;2022-12-18T04:16:09;-5.20;99.90
52509;DHT22;38420;53.150;6.370;2022-12-18T04:18:35;-5.20;99.90
52509;DHT22;38420;53.150;6.370;2022-12-18T04:21:01;-5.30;99.90
52509;DHT22;38420;53.150;6.370;2022-12-18T04:23:27;-5.20;99.90
52509;DHT22;38420;53.150;6.370;2022-12-18T04:25:53;-5.30;99.90
52509;DHT22;38420;53.150;6.370;2022-12-18T04:28:19;-5.10;99.90
52509;DHT22;38420;53.150;6.370;2022-12-18T04:30:48;-5.10;99.90
52509;DHT22;38420;53.150;6.370;2022-12-18T04:33:17;-5.40;99.90
52509;DHT22;38420;53.150;6.370;2022-12-18T04:35:42;-5.10;99.90
52509;DHT22;38420;53.150;6.370;2022-12-18T04:38:09;-5.10;99.90
52509;DHT22;38420;53.150;6.370;2022-12-18T04:40:36;-5.30;99.90
52509;DHT22;38420;53.150;6.370;2022-12-18T04:43:02;-5.40;99.90
52509;DHT22;38420;53.150;6.370;2022-12-18T04:45:27;-5.20;99.90
52509;DHT22;38420;53.150;6.370;2022-12-18T04:47:53;-5.40;99.90
52509;DHT22;38420;53.150;6.370;2022-12-18T04:50:18;-5.20;99.90
52509;DHT22;38420;53.150;6.370;2022-12-18T04:52:44;-5.20;99.90
52509;DHT22;38420;53.150;6.370;2022-12-18T04:55:10;-5.20;99.90
52509;DHT22;38420;53.150;6.370;2022-12-18T04:57:35;-5.40;99.90
52509;DHT22;38420;53.150;6.370;2022-12-18T05:00:01;-5.30;99.90
52509;DHT22;38420;53.150;6.370;2022-12-18T05:02:27;-5.30;99.90
52509;DHT22;38420;53.150;6.370;2022-12-18T05:04:52;-5.40;99.90
52509;DHT22;38420;53.150;6.370;2022-12-18T05:07:18;-5.40;99.90
52509;DHT22;38420;53.150;6.370;2022-12-18T05:09:43;-5.50;99.90
52509;DHT22;38420;53.150;6.370;2022-12-18T05:12:09;-5.30;99.90
52509;DHT22;38420;53.150;6.370;2022-12-18T05:14:35;-5.40;99.90
52509;DHT22;38420;53.150;6.370;2022-12-18T05:17:00;-5.30;99.90
52509;DHT22;38420;53.150;6.370;2022-12-18T05:19:26;-5.50;99.90
52509;DHT22;38420;53.150;6.370;2022-12-18T05:21:51;-5.40;99.90
52509;DHT22;38420;53.150;6.370;2022-12-18T05:24:17;-5.50;99.90
52509;DHT22;38420;53.150;6.370;2022-12-18T05:26:42;-5.50;99.90
52509;DHT22;38420;53.150;6.370;2022-12-18T05:29:08;-5.50;99.90
52509;DHT22;38420;53.150;6.370;2022-12-18T05:31:37;-5.50;99.90
52509;DHT22;38420;53.150;6.370;2022-12-18T05:34:03;-5.40;99.90
52509;DHT22;38420;53.150;6.370;2022-12-18T05:36:29;-5.50;99.90
52509;DHT22;38420;53.150;6.370;2022-12-18T05:38:54;-5.40;99.90
52509;DHT22;38420;53.150;6.370;2022-12-18T05:41:20;-5.60;99.90
52509;DHT22;38420;53.150;6.370;2022-12-18T05:43:45;-5.50;99.90
52509;DHT22;38420;53.150;6.370;2022-12-18T05:46:13;-5.60;99.90
52509;DHT22;38420;53.150;6.370;2022-12-18T05:48:40;-5.60;99.90
52509;DHT22;38420;53.150;6.370;2022-12-18T05:51:08;-5.50;99.90
52509;DHT22;38420;53.150;6.370;2022-12-18T05:53:34;-5.50;99.90
52509;DHT22;38420;53.150;6.370;2022-12-18T05:56:06;-5.50;99.90
52509;DHT22;38420;53.150;6.370;2022-12-18T05:58:32;-5.80;99.90
52509;DHT22;38420;53.150;6.370;2022-12-18T06:01:05;-5.70;99.90
52509;DHT22;38420;53.150;6.370;2022-12-18T06:03:31;-5.80;99.90
52509;DHT22;38420;53.150;6.370;2022-12-18T06:05:56;-5.70;99.90
52509;DHT22;38420;53.150;6.370;2022-12-18T06:08:22;-5.80;99.90
52509;DHT22;38420;53.150;6.370;2022-12-18T06:10:51;-5.90;99.90
52509;DHT22;38420;53.150;6.370;2022-12-18T06:13:18;-5.90;99.90
52509;DHT22;38420;53.150;6.370;2022-12-18T06:15:44;-5.80;99.90
52509;DHT22;38420;53.150;6.370;2022-12-18T06:18:10;-5.80;99.90
52509;DHT22;38420;53.150;6.370;2022-12-18T06:20:35;-5.90;99.90
52509;DHT22;38420;53.150;6.370;2022-12-18T06:23:02;-5.80;99.90
52509;DHT22;38420;53.150;6.370;2022-12-18T06:25:28;-5.80;99.90
52509;DHT22;38420;53.150;6.370;2022-12-18T06:27:54;-5.80;99.90
52509;DHT22;38420;53.150;6.370;2022-12-18T06:30:20;-5.80;99.90
52509;DHT22;38420;53.150;6.370;2022-12-18T06:32:45;-5.90;99.90
52509;DHT22;38420;53.150;6.370;2022-12-18T06:35:12;-5.90;99.90
52509;DHT22;38420;53.150;6.370;2022-12-18T06:37:37;-5.80;99.90
52509;DHT22;38420;53.150;6.370;2022-12-18T06:40:03;-5.70;99.90
52509;DHT22;38420;53.150;6.370;2022-12-18T06:42:30;-5.70;99.90
52509;DHT22;38420;53.150;6.370;2022-12-18T06:44:55;-5.80;99.90
52509;DHT22;38420;53.150;6.370;2022-12-18T06:47:21;-5.80;99.90
52509;DHT22;38420;53.150;6.370;2022-12-18T06:49:47;-5.80;99.90
52509;DHT22;38420;53.150;6.370;2022-12-18T06:52:12;-5.70;99.90
52509;DHT22;38420;53.150;6.370;2022-12-18T06:54:38;-5.70;99.90
52509;DHT22;38420;53.150;6.370;2022-12-18T06:57:03;-5.80;99.90
52509;DHT22;38420;53.150;6.370;2022-12-18T06:59:29;-5.80;99.90
52509;DHT22;38420;53.150;6.370;2022-12-18T07:01:54;-5.80;99.90
52509;DHT22;38420;53.150;6.370;2022-12-18T07:04:20;-5.80;99.90
52509;DHT22;38420;53.150;6.370;2022-12-18T07:06:46;-5.80;99.90
52509;DHT22;38420;53.150;6.370;2022-12-18T07:09:11;-5.70;99.90
52509;DHT22;38420;53.150;6.370;2022-12-18T07:11:37;-5.80;99.90
52509;DHT22;38420;53.150;6.370;2022-12-18T07:14:02;-5.70;99.90
52509;DHT22;38420;53.150;6.370;2022-12-18T07:16:28;-5.70;99.90
52509;DHT22;38420;53.150;6.370;2022-12-18T07:18:54;-5.70;99.90
52509;DHT22;38420;53.150;6.370;2022-12-18T07:21:21;-5.70;99.90
52509;DHT22;38420;53.150;6.370;2022-12-18T07:23:47;-5.70;99.90
52509;DHT22;38420;53.150;6.370;2022-12-18T07:26:14;-5.70;99.90
52509;DHT22;38420;53.150;6.370;2022-12-18T07:28:41;-5.70;99.90
52509;DHT22;38420;53.150;6.370;2022-12-18T07:31:08;-5.00;99.90
52509;DHT22;38420;53.150;6.370;2022-12-18T07:33:35;-5.70;99.90
52509;DHT22;38420;53.150;6.370;2022-12-18T07:36:05;-5.70;99.90
52509;DHT22;38420;53.150;6.370;2022-12-18T07:38:32;-5.70;99.90
52509;DHT22;38420;53.150;6.370;2022-12-18T07:41:06;-5.70;99.90
52509;DHT22;38420;53.150;6.370;2022-12-18T07:43:33;-5.70;99.90
52509;DHT22;38420;53.150;6.370;2022-12-18T07:45:58;-5.60;99.90
52509;DHT22;38420;53.150;6.370;2022-12-18T07:48:24;-5.60;99.90
52509;DHT22;38420;53.150;6.370;2022-12-18T07:50:50;-5.70;99.90
52509;DHT22;38420;53.150;6.370;2022-12-18T07:53:15;-5.60;99.90
52509;DHT22;38420;53.150;6.370;2022-12-18T07:55:42;-5.60;99.90
52509;DHT22;38420;53.150;6.370;2022-12-18T07:58:08;-5.50;99.90
52509;DHT22;38420;53.150;6.370;2022-12-18T08:00:34;-5.60;99.90
52509;DHT22;38420;53.150;6.370;2022-12-18T08:03:00;-5.50;99.90
52509;DHT22;38420;53.150;6.370;2022-12-18T08:05:26;-5.50;99.90
52509;DHT22;38420;53.150;6.370;2022-12-18T08:07:52;-5.50;99.90
52509;DHT22;38420;53.150;6.370;2022-12-18T08:10:18;-5.50;99.90
52509;DHT22;38420;53.150;6.370;2022-12-18T08:12:44;-5.50;99.90
52509;DHT22;38420;53.150;6.370;2022-12-18T08:15:10;-5.40;99.90
52509;DHT22;38420;53.150;6.370;2022-12-18T08:17:36;-5.90;99.90
52509;DHT22;38420;53.150;6.370;2022-12-18T08:20:03;-5.30;99.90
52509;DHT22;38420;53.150;6.370;2022-12-18T08:22:29;-5.30;99.90
52509;DHT22;38420;53.150;6.370;2022-12-18T08:24:54;-5.30;99.90
52509;DHT22;38420;53.150;6.370;2022-12-18T08:27:20;-5.20;99.90
52509;DHT22;38420;53.150;6.370;2022-12-18T08:29:46;-5.30;99.90
52509;DHT22;38420;53.150;6.370;2022-12-18T08:32:11;-5.20;99.90
52509;DHT22;38420;53.150;6.370;2022-12-18T08:34:37;-5.20;99.90
52509;DHT22;38420;53.150;6.370;2022-12-18T08:37:02;-5.10;99.90
52509;DHT22;38420;53.150;6.370;2022-12-18T08:39:28;-5.00;99.90
52509;DHT22;38420;53.150;6.370;2022-12-18T08:41:54;-5.00;99.90
52509;DHT22;38420;53.150;6.370;2022-12-18T08:44:39;-5.00;99.90
52509;DHT22;38420;53.150;6.370;2022-12-18T08:47:08;-4.90;99.90
52509;DHT22;38420;53.150;6.370;2022-12-18T08:49:34;-4.80;99.90
52509;DHT22;38420;53.150;6.370;2022-12-18T08:52:00;-4.70;99.90
52509;DHT22;38420;53.150;6.370;2022-12-18T08:54:27;-4.70;99.90
52509;DHT22;38420;53.150;6.370;2022-12-18T08:56:52;-4.60;99.90
52509;DHT22;38420;53.150;6.370;2022-12-18T08:59:18;-3.70;99.90
52509;DHT22;38420;53.150;6.370;2022-12-18T09:01:45;-4.50;99.90
52509;DHT22;38420;53.150;6.370;2022-12-18T09:04:11;-4.50;99.90
52509;DHT22;38420;53.150;6.370;2022-12-18T09:06:37;-4.40;99.90
52509;DHT22;38420;53.150;6.370;2022-12-18T09:09:03;-4.40;99.90
52509;DHT22;38420;53.150;6.370;2022-12-18T09:11:30;-4.30;99.90
52509;DHT22;38420;53.150;6.370;2022-12-18T09:13:57;-4.20;99.90
52509;DHT22;38420;53.150;6.370;2022-12-18T09:16:25;-4.10;99.90
52509;DHT22;38420;53.150;6.370;2022-12-18T09:18:50;-4.10;99.90
52509;DHT22;38420;53.150;6.370;2022-12-18T09:21:18;-3.90;99.90
52509;DHT22;38420;53.150;6.370;2022-12-18T09:23:50;-2.70;99.90
52509;DHT22;38420;53.150;6.370;2022-12-18T09:26:15;-3.90;99.90
52509;DHT22;38420;53.150;6.370;2022-12-18T09:28:41;-3.80;99.90
52509;DHT22;38420;53.150;6.370;2022-12-18T09:31:08;-3.80;99.90
52509;DHT22;38420;53.150;6.370;2022-12-18T09:33:36;-3.60;99.90
52509;DHT22;38420;53.150;6.370;2022-12-18T09:36:08;-3.50;99.90
52509;DHT22;38420;53.150;6.370;2022-12-18T09:38:35;-3.50;99.90
52509;DHT22;38420;53.150;6.370;2022-12-18T09:43:47;-3.30;99.90
52509;DHT22;38420;53.150;6.370;2022-12-18T09:46:26;-3.30;99.90
52509;DHT22;38420;53.150;6.370;2022-12-18T09:48:54;-3.10;99.90
52509;DHT22;38420;53.150;6.370;2022-12-18T09:51:28;-2.90;99.90
52509;DHT22;38420;53.150;6.370;2022-12-18T09:54:33;-2.90;99.90
52509;DHT22;38420;53.150;6.370;2022-12-18T09:56:56;-2.80;99.90
52509;DHT22;38420;53.150;6.370;2022-12-18T09:59:42;-2.80;99.90
52509;DHT22;38420;53.150;6.370;2022-12-18T10:02:23;-2.80;99.90
52509;DHT22;38420;53.150;6.370;2022-12-18T10:07:53;-2.90;99.90
52509;DHT22;38420;53.150;6.370;2022-12-18T10:13:35;-3.00;99.90
52509;DHT22;38420;53.150;6.370;2022-12-18T10:16:12;-3.00;99.90
52509;DHT22;38420;53.150;6.370;2022-12-18T10:19:01;-2.70;99.90
52509;DHT22;38420;53.150;6.370;2022-12-18T10:26:27;-1.70;99.90
52509;DHT22;38420;53.150;6.370;2022-12-18T10:28:53;-1.80;99.90
52509;DHT22;38420;53.150;6.370;2022-12-18T10:31:23;-2.00;99.90
52509;DHT22;38420;53.150;6.370;2022-12-18T10:33:49;-2.10;99.90
52509;DHT22;38420;53.150;6.370;2022-12-18T10:36:15;-2.20;99.90
52509;DHT22;38420;53.150;6.370;2022-12-18T10:38:41;-2.30;99.90
52509;DHT22;38420;53.150;6.370;2022-12-18T10:41:24;-2.40;99.90
52509;DHT22;38420;53.150;6.370;2022-12-18T10:44:29;-2.50;99.90
52509;DHT22;38420;53.150;6.370;2022-12-18T10:47:03;-2.50;99.90
52509;DHT22;38420;53.150;6.370;2022-12-18T10:49:32;-2.60;99.90
52509;DHT22;38420;53.150;6.370;2022-12-18T10:54:38;-2.70;99.90
52509;DHT22;38420;53.150;6.370;2022-12-18T10:57:37;-2.70;99.90
52509;DHT22;38420;53.150;6.370;2022-12-18T11:00:31;-2.80;99.90
52509;DHT22;38420;53.150;6.370;2022-12-18T11:02:57;-2.80;99.90
52509;DHT22;38420;53.150;6.370;2022-12-18T11:05:31;-2.80;99.90
52509;DHT22;38420;53.150;6.370;2022-12-18T11:07:58;-4.20;99.90
52509;DHT22;38420;53.150;6.370;2022-12-18T11:10:36;-2.70;99.90
52509;DHT22;38420;53.150;6.370;2022-12-18T11:13:16;-2.70;99.90
52509;DHT22;38420;53.150;6.370;2022-12-18T11:15:42;-2.70;99.90
52509;DHT22;38420;53.150;6.370;2022-12-18T11:20:57;-2.60;99.90
52509;DHT22;38420;53.150;6.370;2022-12-18T11:23:25;-2.60;99.90
52509;DHT22;38420;53.150;6.370;2022-12-18T11:25:58;-2.60;99.90
52509;DHT22;38420;53.150;6.370;2022-12-18T11:28:39;-2.50;99.90
52509;DHT22;38420;53.150;6.370;2022-12-18T11:31:19;-2.50;99.90
52509;DHT22;38420;53.150;6.370;2022-12-18T11:34:09;-2.40;99.90
52509;DHT22;38420;53.150;6.370;2022-12-18T11:36:41;-2.40;99.90
52509;DHT22;38420;53.150;6.370;2022-12-18T11:39:35;-2.40;99.90
52509;DHT22;38420;53.150;6.370;2022-12-18T11:42:12;-2.40;99.90
52509;DHT22;38420;53.150;6.370;2022-12-18T11:44:49;-2.40;99.90
52509;DHT22;38420;53.150;6.370;2022-12-18T11:50:00;-2.30;99.90
52509;DHT22;38420;53.150;6.370;2022-12-18T11:52:31;-2.30;99.90
52509;DHT22;38420;53.150;6.370;2022-12-18T11:55:01;-2.30;99.90
52509;DHT22;38420;53.150;6.370;2022-12-18T12:00:21;-2.30;99.90
52509;DHT22;38420;53.150;6.370;2022-12-18T12:03:14;-2.30;99.90
52509;DHT22;38420;53.150;6.370;2022-12-18T12:05:55;-2.20;99.90
52509;DHT22;38420;53.150;6.370;2022-12-18T12:11:10;-2.20;99.90
52509;DHT22;38420;53.150;6.370;2022-12-18T12:13:44;-2.20;99.90
52509;DHT22;38420;53.150;6.370;2022-12-18T12:16:34;-2.10;99.90
52509;DHT22;38420;53.150;6.370;2022-12-18T12:19:24;-2.10;99.90
52509;DHT22;38420;53.150;6.370;2022-12-18T12:22:21;-2.10;99.90
52509;DHT22;38420;53.150;6.370;2022-12-18T12:30:20;-2.10;99.90
52509;DHT22;38420;53.150;6.370;2022-12-18T12:35:46;-2.00;99.90
52509;DHT22;38420;53.150;6.370;2022-12-18T12:40:56;-2.00;99.90
52509;DHT22;38420;53.150;6.370;2022-12-18T12:43:42;-2.00;99.90
52509;DHT22;38420;53.150;6.370;2022-12-18T12:46:11;-1.90;99.90
52509;DHT22;38420;53.150;6.370;2022-12-18T12:49:04;-1.90;99.90
52509;DHT22;38420;53.150;6.370;2022-12-18T12:51:41;-1.90;99.90
52509;DHT22;38420;53.150;6.370;2022-12-18T12:54:20;-1.80;99.90
52509;DHT22;38420;53.150;6.370;2022-12-18T12:57:31;-1.80;99.90
52509;DHT22;38420;53.150;6.370;2022-12-18T13:00:18;-1.80;99.90
52509;DHT22;38420;53.150;6.370;2022-12-18T13:03:04;-1.80;99.90
52509;DHT22;38420;53.150;6.370;2022-12-18T13:05:52;-1.80;99.90
52509;DHT22;38420;53.150;6.370;2022-12-18T13:08:31;-1.80;99.90
52509;DHT22;38420;53.150;6.370;2022-12-18T13:10:58;-1.70;99.90
52509;DHT22;38420;53.150;6.370;2022-12-18T13:13:56;-1.70;99.90
52509;DHT22;38420;53.150;6.370;2022-12-18T13:16:24;-1.70;99.90
52509;DHT22;38420;53.150;6.370;2022-12-18T13:18:54;-1.60;99.90
52509;DHT22;38420;53.150;6.370;2022-12-18T13:21:31;-1.60;99.90
52509;DHT22;38420;53.150;6.370;2022-12-18T13:24:27;-1.60;99.90
52509;DHT22;38420;53.150;6.370;2022-12-18T13:26:55;-1.60;99.90
52509;DHT22;38420;53.150;6.370;2022-12-18T13:29:45;-1.50;99.90
52509;DHT22;38420;53.150;6.370;2022-12-18T13:32:23;-1.50;99.90
52509;DHT22;38420;53.150;6.370;2022-12-18T13:36:00;-1.50;99.90
52509;DHT22;38420;53.150;6.370;2022-12-18T13:37:55;-1.50;99.90
52509;DHT22;38420;53.150;6.370;2022-12-18T13:43:47;-1.40;99.90
52509;DHT22;38420;53.150;6.370;2022-12-18T13:46:30;-1.40;99.90
52509;DHT22;38420;53.150;6.370;2022-12-18T13:51:44;-1.40;99.90
52509;DHT22;38420;53.150;6.370;2022-12-18T13:54:34;-1.40;99.90
52509;DHT22;38420;53.150;6.370;2022-12-18T13:57:01;-1.30;99.90
52509;DHT22;38420;53.150;6.370;2022-12-18T13:59:38;-1.30;99.90
52509;DHT22;38420;53.150;6.370;2022-12-18T14:02:23;-1.30;99.90
52509;DHT22;38420;53.150;6.370;2022-12-18T14:04:50;-1.30;99.90
52509;DHT22;38420;53.150;6.370;2022-12-18T14:07:27;-1.30;99.90
52509;DHT22;38420;53.150;6.370;2022-12-18T14:10:01;-1.30;99.90
52509;DHT22;38420;53.150;6.370;2022-12-18T14:12:31;-1.30;99.90
52509;DHT22;38420;53.150;6.370;2022-12-18T14:15:31;-1.30;99.90
52509;DHT22;38420;53.150;6.370;2022-12-18T14:20:30;-1.30;99.90
52509;DHT22;38420;53.150;6.370;2022-12-18T14:22:56;-1.30;99.90
52509;DHT22;38420;53.150;6.370;2022-12-18T14:25:25;-1.30;99.90
52509;DHT22;38420;53.150;6.370;2022-12-18T14:30:39;-1.30;99.90
52509;DHT22;38420;53.150;6.370;2022-12-18T14:35:35;-1.30;99.90
52509;DHT22;38420;53.150;6.370;2022-12-18T14:41:04;-1.30;99.90
52509;DHT22;38420;53.150;6.370;2022-12-18T14:43:35;-1.30;99.90
52509;DHT22;38420;53.150;6.370;2022-12-18T14:46:03;-1.30;99.90
52509;DHT22;38420;53.150;6.370;2022-12-18T14:51:05;-1.30;99.90
52509;DHT22;38420;53.150;6.370;2022-12-18T14:53:35;-1.20;99.90
52509;DHT22;38420;53.150;6.370;2022-12-18T14:56:02;-1.30;99.90
52509;DHT22;38420;53.150;6.370;2022-12-18T14:58:28;-1.30;99.90
52509;DHT22;38420;53.150;6.370;2022-12-18T15:00:54;-1.30;99.90
52509;DHT22;38420;53.150;6.370;2022-12-18T15:03:21;-1.30;99.90
52509;DHT22;38420;53.150;6.370;2022-12-18T15:05:47;-1.30;99.90
52509;DHT22;38420;53.150;6.370;2022-12-18T15:08:36;-1.30;99.90
52509;DHT22;38420;53.150;6.370;2022-12-18T15:11:02;-1.30;99.90
52509;DHT22;38420;53.150;6.370;2022-12-18T15:13:28;-1.30;99.90
52509;DHT22;38420;53.150;6.370;2022-12-18T15:15:57;-1.30;99.90
52509;DHT22;38420;53.150;6.370;2022-12-18T15:18:34;-1.30;99.90
52509;DHT22;38420;53.150;6.370;2022-12-18T15:21:09;-1.30;99.90
52509;DHT22;38420;53.150;6.370;2022-12-18T15:26:11;-1.40;99.90
52509;DHT22;38420;53.150;6.370;2022-12-18T15:28:54;-1.40;99.90
52509;DHT22;38420;53.150;6.370;2022-12-18T15:31:34;-1.40;99.90
52509;DHT22;38420;53.150;6.370;2022-12-18T15:34:20;-1.40;99.90
52509;DHT22;38420;53.150;6.370;2022-12-18T15:36:47;-1.40;99.90
52509;DHT22;38420;53.150;6.370;2022-12-18T15:39:13;-1.40;99.90
52509;DHT22;38420;53.150;6.370;2022-12-18T15:41:39;-1.40;99.90
52509;DHT22;38420;53.150;6.370;2022-12-18T15:44:37;-1.40;99.90
52509;DHT22;38420;53.150;6.370;2022-12-18T15:47:03;-1.40;99.90
52509;DHT22;38420;53.150;6.370;2022-12-18T15:49:28;-1.40;99.90
52509;DHT22;38420;53.150;6.370;2022-12-18T15:51:57;-1.40;99.90
52509;DHT22;38420;53.150;6.370;2022-12-18T15:54:23;-1.40;99.90
52509;DHT22;38420;53.150;6.370;2022-12-18T15:57:11;-1.50;99.90
52509;DHT22;38420;53.150;6.370;2022-12-18T15:59:53;-1.50;99.90
52509;DHT22;38420;53.150;6.370;2022-12-18T16:02:21;-1.50;99.90
52509;DHT22;38420;53.150;6.370;2022-12-18T16:04:48;-1.50;99.90
52509;DHT22;38420;53.150;6.370;2022-12-18T16:07:14;-1.50;99.90
52509;DHT22;38420;53.150;6.370;2022-12-18T16:09:41;-1.50;99.90
52509;DHT22;38420;53.150;6.370;2022-12-18T16:12:19;-1.50;99.90
52509;DHT22;38420;53.150;6.370;2022-12-18T16:14:46;-1.60;99.90
52509;DHT22;38420;53.150;6.370;2022-12-18T16:17:13;-1.60;99.90
52509;DHT22;38420;53.150;6.370;2022-12-18T16:19:39;-1.60;99.90
52509;DHT22;38420;53.150;6.370;2022-12-18T16:22:05;-1.60;99.90
52509;DHT22;38420;53.150;6.370;2022-12-18T16:24:33;-1.60;99.90
52509;DHT22;38420;53.150;6.370;2022-12-18T16:26:59;-1.60;99.90
52509;DHT22;38420;53.150;6.370;2022-12-18T16:29:26;-1.60;99.90
52509;DHT22;38420;53.150;6.370;2022-12-18T16:32:00;-1.70;99.90
52509;DHT22;38420;53.150;6.370;2022-12-18T16:34:30;-1.60;99.90
52509;DHT22;38420;53.150;6.370;2022-12-18T16:37:15;-1.60;99.90
52509;DHT22;38420;53.150;6.370;2022-12-18T16:39:42;-1.60;99.90
52509;DHT22;38420;53.150;6.370;2022-12-18T16:42:14;-1.60;99.90
52509;DHT22;38420;53.150;6.370;2022-12-18T16:44:42;-1.60;99.90
52509;DHT22;38420;53.150;6.370;2022-12-18T16:47:08;-1.60;99.90
52509;DHT22;38420;53.150;6.370;2022-12-18T16:49:34;-1.50;99.90
52509;DHT22;38420;53.150;6.370;2022-12-18T16:52:04;-1.50;99.90
52509;DHT22;38420;53.150;6.370;2022-12-18T16:54:30;-1.50;99.90
52509;DHT22;38420;53.150;6.370;2022-12-18T16:56:56;-1.50;99.90
52509;DHT22;38420;53.150;6.370;2022-12-18T16:59:21;-1.50;99.90
52509;DHT22;38420;53.150;6.370;2022-12-18T17:01:47;-1.50;99.90
52509;DHT22;38420;53.150;6.370;2022-12-18T17:04:14;-1.40;99.90
52509;DHT22;38420;53.150;6.370;2022-12-18T17:06:42;-1.40;99.90
52509;DHT22;38420;53.150;6.370;2022-12-18T17:09:11;-1.40;99.90
52509;DHT22;38420;53.150;6.370;2022-12-18T17:11:38;-1.40;99.90